sensor_id;sensor_type;location;lat;lon;timestamp;P1;durP1;ratioP1;P2;durP2;ratioP2
78072;SDS011;67281;48.770;11.440;2023-07-28T00:00:16;1.57;;;1.40;;
78072;SDS011;67281;48.770;11.440;2023-07-28T00:02:43;1.27;;;1.27;;
78072;SDS011;67281;48.770;11.440;2023-07-28T00:05:10;5.13;;;2.13;;
78072;SDS011;67281;48.770;11.440;2023-07-28T00:07:47;1.20;;;1.20;;
78072;SDS011;67281;48.770;11.440;2023-07-28T00:10:30;2.47;;;1.60;;
78072;SDS011;67281;48.770;11.440;2023-07-28T00:12:58;1.33;;;1.23;;
78072;SDS011;67281;48.770;11.440;2023-07-28T00:15:33;1.27;;;1.27;;
78072;SDS011;67281;48.770;11.440;2023-07-28T00:18:07;1.33;;;1.20;;
78072;SDS011;67281;48.770;11.440;2023-07-28T00:20:45;1.53;;;1.30;;
78072;SDS011;67281;48.770;11.440;2023-07-28T00:23:15;1.33;;;1.33;;
78072;SDS011;67281;48.770;11.440;2023-07-28T00:30:17;1.20;;;1.10;;
78072;SDS011;67281;48.770;11.440;2023-07-28T00:34:29;1.10;;;1.10;;
78072;SDS011;67281;48.770;11.440;2023-07-28T00:36:56;1.93;;;1.83;;
78072;SDS011;67281;48.770;11.440;2023-07-28T00:39:26;1.10;;;1.10;;
78072;SDS011;67281;48.770;11.440;2023-07-28T00:42:16;2.40;;;1.90;;
78072;SDS011;67281;48.770;11.440;2023-07-28T00:44:42;1.73;;;1.60;;
78072;SDS011;67281;48.770;11.440;2023-07-28T00:53:45;1.53;;;1.40;;
78072;SDS011;67281;48.770;11.440;2023-07-28T00:56:12;1.47;;;1.37;;
78072;SDS011;67281;48.770;11.440;2023-07-28T00:58:40;1.00;;;1.00;;
78072;SDS011;67281;48.770;11.440;2023-07-28T01:01:07;1.50;;;1.40;;
78072;SDS011;67281;48.770;11.440;2023-07-28T01:03:34;1.23;;;1.23;;
78072;SDS011;67281;48.770;11.440;2023-07-28T01:06:26;1.70;;;1.57;;
78072;SDS011;67281;48.770;11.440;2023-07-28T01:09:09;1.00;;;1.00;;
78072;SDS011;67281;48.770;11.440;2023-07-28T01:13:01;1.63;;;1.53;;
78072;SDS011;67281;48.770;11.440;2023-07-28T01:15:17;1.30;;;1.30;;
78072;SDS011;67281;48.770;11.440;2023-07-28T01:18:05;1.67;;;1.57;;
78072;SDS011;67281;48.770;11.440;2023-07-28T01:20:32;2.20;;;2.00;;
78072;SDS011;67281;48.770;11.440;2023-07-28T01:23:18;1.63;;;1.53;;
78072;SDS011;67281;48.770;11.440;2023-07-28T01:28:32;1.33;;;1.23;;
78072;SDS011;67281;48.770;11.440;2023-07-28T01:31:44;1.53;;;1.43;;
78072;SDS011;67281;48.770;11.440;2023-07-28T01:34:13;3.40;;;1.50;;
78072;SDS011;67281;48.770;11.440;2023-07-28T01:36:41;1.77;;;1.67;;
78072;SDS011;67281;48.770;11.440;2023-07-28T01:39:08;1.53;;;1.43;;
78072;SDS011;67281;48.770;11.440;2023-07-28T01:41:35;1.00;;;1.00;;
78072;SDS011;67281;48.770;11.440;2023-07-28T01:44:32;1.03;;;1.00;;
78072;SDS011;67281;48.770;11.440;2023-07-28T01:46:59;2.83;;;1.67;;
78072;SDS011;67281;48.770;11.440;2023-07-28T01:49:38;2.23;;;2.03;;
78072;SDS011;67281;48.770;11.440;2023-07-28T01:52:05;1.90;;;1.77;;
78072;SDS011;67281;48.770;11.440;2023-07-28T01:54:33;4.40;;;1.37;;
78072;SDS011;67281;48.770;11.440;2023-07-28T01:57:09;1.60;;;1.50;;
78072;SDS011;67281;48.770;11.440;2023-07-28T01:59:37;1.53;;;1.43;;
78072;SDS011;67281;48.770;11.440;2023-07-28T02:02:04;0.87;;;0.87;;
78072;SDS011;67281;48.770;11.440;2023-07-28T02:07:33;1.47;;;1.37;;
78072;SDS011;67281;48.770;11.440;2023-07-28T02:10:00;1.33;;;1.20;;
78072;SDS011;67281;48.770;11.440;2023-07-28T02:12:27;1.53;;;1.40;;
78072;SDS011;67281;48.770;11.440;2023-07-28T02:14:55;15.03;;;1.40;;
78072;SDS011;67281;48.770;11.440;2023-07-28T02:17:22;1.00;;;1.00;;
78072;SDS011;67281;48.770;11.440;2023-07-28T02:19:49;1.60;;;1.50;;
78072;SDS011;67281;48.770;11.440;2023-07-28T02:22:16;1.93;;;1.83;;
78072;SDS011;67281;48.770;11.440;2023-07-28T02:24:44;1.57;;;1.47;;
78072;SDS011;67281;48.770;11.440;2023-07-28T02:27:11;2.70;;;1.93;;
78072;SDS011;67281;48.770;11.440;2023-07-28T02:29:39;1.40;;;1.30;;
78072;SDS011;67281;48.770;11.440;2023-07-28T02:32:06;2.03;;;1.83;;
78072;SDS011;67281;48.770;11.440;2023-07-28T02:34:34;2.03;;;1.67;;
78072;SDS011;67281;48.770;11.440;2023-07-28T02:37:01;1.87;;;1.43;;
78072;SDS011;67281;48.770;11.440;2023-07-28T02:39:29;0.87;;;0.87;;
78072;SDS011;67281;48.770;11.440;2023-07-28T02:41:56;1.20;;;1.20;;
78072;SDS011;67281;48.770;11.440;2023-07-28T02:44:23;1.07;;;1.07;;
78072;SDS011;67281;48.770;11.440;2023-07-28T02:46:50;3.10;;;1.43;;
78072;SDS011;67281;48.770;11.440;2023-07-28T02:49:18;1.60;;;1.50;;
78072;SDS011;67281;48.770;11.440;2023-07-28T02:51:45;1.43;;;1.33;;
78072;SDS011;67281;48.770;11.440;2023-07-28T02:54:12;1.77;;;1.67;;
78072;SDS011;67281;48.770;11.440;2023-07-28T02:56:39;1.97;;;1.87;;
78072;SDS011;67281;48.770;11.440;2023-07-28T02:59:06;1.00;;;1.00;;
78072;SDS011;67281;48.770;11.440;2023-07-28T03:01:34;2.90;;;2.70;;
78072;SDS011;67281;48.770;11.440;2023-07-28T03:04:02;1.40;;;1.40;;
78072;SDS011;67281;48.770;11.440;2023-07-28T03:06:29;1.10;;;1.10;;
78072;SDS011;67281;48.770;11.440;2023-07-28T03:09:13;0.80;;;0.80;;
78072;SDS011;67281;48.770;11.440;2023-07-28T03:11:42;1.10;;;1.10;;
78072;SDS011;67281;48.770;11.440;2023-07-28T03:14:10;2.43;;;1.60;;
78072;SDS011;67281;48.770;11.440;2023-07-28T03:16:41;1.40;;;1.30;;
78072;SDS011;67281;48.770;11.440;2023-07-28T03:22:13;1.60;;;1.50;;
78072;SDS011;67281;48.770;11.440;2023-07-28T03:25:01;1.60;;;1.50;;
78072;SDS011;67281;48.770;11.440;2023-07-28T03:27:48;1.43;;;1.33;;
78072;SDS011;67281;48.770;11.440;2023-07-28T03:30:15;1.13;;;0.90;;
78072;SDS011;67281;48.770;11.440;2023-07-28T03:32:43;1.17;;;1.17;;
78072;SDS011;67281;48.770;11.440;2023-07-28T03:35:10;1.27;;;1.27;;
78072;SDS011;67281;48.770;11.440;2023-07-28T03:37:38;1.50;;;1.40;;
78072;SDS011;67281;48.770;11.440;2023-07-28T03:40:06;1.20;;;1.17;;
78072;SDS011;67281;48.770;11.440;2023-07-28T03:43:27;0.90;;;0.90;;
78072;SDS011;67281;48.770;11.440;2023-07-28T03:45:57;1.20;;;1.20;;
78072;SDS011;67281;48.770;11.440;2023-07-28T03:48:27;1.80;;;1.37;;
78072;SDS011;67281;48.770;11.440;2023-07-28T03:50:54;1.17;;;1.10;;
78072;SDS011;67281;48.770;11.440;2023-07-28T03:53:21;1.33;;;1.17;;
78072;SDS011;67281;48.770;11.440;2023-07-28T03:55:48;2.00;;;1.90;;
78072;SDS011;67281;48.770;11.440;2023-07-28T03:58:47;1.57;;;1.47;;
78072;SDS011;67281;48.770;11.440;2023-07-28T04:01:14;1.23;;;1.13;;
78072;SDS011;67281;48.770;11.440;2023-07-28T04:03:41;1.97;;;1.87;;
78072;SDS011;67281;48.770;11.440;2023-07-28T04:06:10;3.97;;;1.90;;
78072;SDS011;67281;48.770;11.440;2023-07-28T04:08:57;2.03;;;1.83;;
78072;SDS011;67281;48.770;11.440;2023-07-28T04:11:24;1.30;;;1.20;;
78072;SDS011;67281;48.770;11.440;2023-07-28T04:14:25;3.47;;;2.57;;
78072;SDS011;67281;48.770;11.440;2023-07-28T04:16:58;1.00;;;1.00;;
78072;SDS011;67281;48.770;11.440;2023-07-28T04:19:25;2.20;;;2.10;;
78072;SDS011;67281;48.770;11.440;2023-07-28T04:21:52;1.67;;;1.57;;
78072;SDS011;67281;48.770;11.440;2023-07-28T04:24:20;1.97;;;1.83;;
78072;SDS011;67281;48.770;11.440;2023-07-28T04:27:00;1.57;;;1.47;;
78072;SDS011;67281;48.770;11.440;2023-07-28T04:29:29;1.37;;;1.27;;
78072;SDS011;67281;48.770;11.440;2023-07-28T04:31:56;1.43;;;1.37;;
78072;SDS011;67281;48.770;11.440;2023-07-28T04:34:24;1.10;;;1.07;;
78072;SDS011;67281;48.770;11.440;2023-07-28T04:36:55;1.00;;;1.00;;
78072;SDS011;67281;48.770;11.440;2023-07-28T04:39:22;1.50;;;1.40;;
78072;SDS011;67281;48.770;11.440;2023-07-28T04:41:49;2.07;;;1.33;;
78072;SDS011;67281;48.770;11.440;2023-07-28T04:44:22;1.57;;;1.47;;
78072;SDS011;67281;48.770;11.440;2023-07-28T04:46:49;0.80;;;0.80;;
78072;SDS011;67281;48.770;11.440;2023-07-28T04:49:17;1.10;;;1.10;;
78072;SDS011;67281;48.770;11.440;2023-07-28T04:51:44;1.10;;;1.10;;
78072;SDS011;67281;48.770;11.440;2023-07-28T04:54:11;1.63;;;1.53;;
78072;SDS011;67281;48.770;11.440;2023-07-28T04:56:38;1.00;;;1.00;;
78072;SDS011;67281;48.770;11.440;2023-07-28T04:59:37;1.47;;;1.37;;
78072;SDS011;67281;48.770;11.440;2023-07-28T05:02:07;1.40;;;1.27;;
78072;SDS011;67281;48.770;11.440;2023-07-28T05:04:35;1.07;;;1.07;;
78072;SDS011;67281;48.770;11.440;2023-07-28T05:07:04;1.97;;;1.87;;
78072;SDS011;67281;48.770;11.440;2023-07-28T05:09:31;1.70;;;1.60;;
78072;SDS011;67281;48.770;11.440;2023-07-28T05:12:07;1.93;;;1.80;;
78072;SDS011;67281;48.770;11.440;2023-07-28T05:14:41;1.23;;;1.20;;
78072;SDS011;67281;48.770;11.440;2023-07-28T05:17:08;1.80;;;1.70;;
78072;SDS011;67281;48.770;11.440;2023-07-28T05:19:41;1.90;;;1.80;;
78072;SDS011;67281;48.770;11.440;2023-07-28T05:22:27;1.53;;;1.43;;
78072;SDS011;67281;48.770;11.440;2023-07-28T05:24:55;2.37;;;2.17;;
78072;SDS011;67281;48.770;11.440;2023-07-28T05:27:45;1.43;;;1.33;;
78072;SDS011;67281;48.770;11.440;2023-07-28T05:30:19;1.80;;;1.70;;
78072;SDS011;67281;48.770;11.440;2023-07-28T05:32:54;1.50;;;1.43;;
78072;SDS011;67281;48.770;11.440;2023-07-28T05:35:41;2.43;;;2.23;;
78072;SDS011;67281;48.770;11.440;2023-07-28T05:38:14;2.40;;;2.20;;
78072;SDS011;67281;48.770;11.440;2023-07-28T05:40:41;1.60;;;1.50;;
78072;SDS011;67281;48.770;11.440;2023-07-28T05:46:23;1.53;;;1.43;;
78072;SDS011;67281;48.770;11.440;2023-07-28T05:49:00;2.27;;;1.77;;
78072;SDS011;67281;48.770;11.440;2023-07-28T05:51:30;2.13;;;2.03;;
78072;SDS011;67281;48.770;11.440;2023-07-28T05:54:31;1.10;;;1.10;;
78072;SDS011;67281;48.770;11.440;2023-07-28T05:57:18;1.93;;;1.83;;
78072;SDS011;67281;48.770;11.440;2023-07-28T05:59:51;1.93;;;1.83;;
78072;SDS011;67281;48.770;11.440;2023-07-28T06:02:41;3.87;;;1.70;;
78072;SDS011;67281;48.770;11.440;2023-07-28T06:05:08;1.70;;;1.40;;
78072;SDS011;67281;48.770;11.440;2023-07-28T06:07:58;2.33;;;2.13;;
78072;SDS011;67281;48.770;11.440;2023-07-28T06:17:09;1.20;;;1.20;;
78072;SDS011;67281;48.770;11.440;2023-07-28T06:19:45;1.47;;;1.40;;
78072;SDS011;67281;48.770;11.440;2023-07-28T06:22:16;1.60;;;1.50;;
78072;SDS011;67281;48.770;11.440;2023-07-28T06:24:56;1.20;;;1.10;;
78072;SDS011;67281;48.770;11.440;2023-07-28T06:27:24;2.10;;;1.90;;
78072;SDS011;67281;48.770;11.440;2023-07-28T06:30:01;1.80;;;1.70;;
78072;SDS011;67281;48.770;11.440;2023-07-28T06:32:28;1.40;;;1.30;;
78072;SDS011;67281;48.770;11.440;2023-07-28T06:35:01;20.40;;;2.07;;
78072;SDS011;67281;48.770;11.440;2023-07-28T06:37:36;2.27;;;2.07;;
78072;SDS011;67281;48.770;11.440;2023-07-28T06:40:16;1.57;;;1.47;;
78072;SDS011;67281;48.770;11.440;2023-07-28T06:42:43;2.03;;;1.83;;
78072;SDS011;67281;48.770;11.440;2023-07-28T06:45:10;1.43;;;1.30;;
78072;SDS011;67281;48.770;11.440;2023-07-28T06:47:37;2.03;;;1.50;;
78072;SDS011;67281;48.770;11.440;2023-07-28T06:50:19;1.30;;;1.20;;
78072;SDS011;67281;48.770;11.440;2023-07-28T06:53:11;1.63;;;1.53;;
78072;SDS011;67281;48.770;11.440;2023-07-28T06:55:49;14.30;;;1.80;;
78072;SDS011;67281;48.770;11.440;2023-07-28T06:58:44;1.73;;;1.63;;
78072;SDS011;67281;48.770;11.440;2023-07-28T07:01:26;1.30;;;1.30;;
78072;SDS011;67281;48.770;11.440;2023-07-28T07:04:24;2.30;;;1.77;;
78072;SDS011;67281;48.770;11.440;2023-07-28T07:06:51;1.30;;;1.30;;
78072;SDS011;67281;48.770;11.440;2023-07-28T07:09:30;2.67;;;2.47;;
78072;SDS011;67281;48.770;11.440;2023-07-28T07:14:50;2.37;;;2.17;;
78072;SDS011;67281;48.770;11.440;2023-07-28T07:21:01;1.70;;;1.60;;
78072;SDS011;67281;48.770;11.440;2023-07-28T07:23:37;2.80;;;2.13;;
78072;SDS011;67281;48.770;11.440;2023-07-28T07:26:10;1.03;;;1.03;;
78072;SDS011;67281;48.770;11.440;2023-07-28T07:28:38;2.13;;;1.93;;
78072;SDS011;67281;48.770;11.440;2023-07-28T07:31:11;2.23;;;2.13;;
78072;SDS011;67281;48.770;11.440;2023-07-28T07:33:39;2.57;;;2.07;;
78072;SDS011;67281;48.770;11.440;2023-07-28T07:36:13;3.90;;;2.43;;
78072;SDS011;67281;48.770;11.440;2023-07-28T07:38:41;3.73;;;2.40;;
78072;SDS011;67281;48.770;11.440;2023-07-28T07:41:08;1.67;;;1.47;;
78072;SDS011;67281;48.770;11.440;2023-07-28T07:43:38;4.50;;;2.87;;
78072;SDS011;67281;48.770;11.440;2023-07-28T07:46:08;2.50;;;2.30;;
78072;SDS011;67281;48.770;11.440;2023-07-28T07:48:40;3.67;;;2.50;;
78072;SDS011;67281;48.770;11.440;2023-07-28T07:51:07;4.87;;;3.03;;
78072;SDS011;67281;48.770;11.440;2023-07-28T07:53:35;2.30;;;2.10;;
78072;SDS011;67281;48.770;11.440;2023-07-28T07:56:05;1.07;;;1.07;;
78072;SDS011;67281;48.770;11.440;2023-07-28T07:58:33;2.17;;;2.00;;
78072;SDS011;67281;48.770;11.440;2023-07-28T08:01:01;2.60;;;2.40;;
78072;SDS011;67281;48.770;11.440;2023-07-28T08:03:28;1.83;;;1.67;;
78072;SDS011;67281;48.770;11.440;2023-07-28T08:05:55;1.90;;;1.80;;
78072;SDS011;67281;48.770;11.440;2023-07-28T08:08:25;2.87;;;1.70;;
78072;SDS011;67281;48.770;11.440;2023-07-28T08:10:54;1.87;;;1.70;;
78072;SDS011;67281;48.770;11.440;2023-07-28T08:13:22;1.53;;;1.43;;
78072;SDS011;67281;48.770;11.440;2023-07-28T08:15:54;1.73;;;1.63;;
78072;SDS011;67281;48.770;11.440;2023-07-28T08:18:22;1.80;;;1.70;;
78072;SDS011;67281;48.770;11.440;2023-07-28T08:20:49;4.80;;;2.43;;
78072;SDS011;67281;48.770;11.440;2023-07-28T08:23:16;1.97;;;1.77;;
78072;SDS011;67281;48.770;11.440;2023-07-28T08:25:44;1.67;;;1.57;;
78072;SDS011;67281;48.770;11.440;2023-07-28T08:28:11;1.97;;;1.87;;
78072;SDS011;67281;48.770;11.440;2023-07-28T08:30:56;2.03;;;1.93;;
78072;SDS011;67281;48.770;11.440;2023-07-28T08:33:25;1.63;;;1.53;;
78072;SDS011;67281;48.770;11.440;2023-07-28T08:35:52;2.50;;;1.27;;
78072;SDS011;67281;48.770;11.440;2023-07-28T08:38:19;1.00;;;1.00;;
78072;SDS011;67281;48.770;11.440;2023-07-28T08:40:56;1.63;;;1.53;;
78072;SDS011;67281;48.770;11.440;2023-07-28T08:43:34;1.40;;;1.30;;
78072;SDS011;67281;48.770;11.440;2023-07-28T08:46:01;1.60;;;1.37;;
78072;SDS011;67281;48.770;11.440;2023-07-28T08:48:30;2.33;;;1.40;;
78072;SDS011;67281;48.770;11.440;2023-07-28T08:51:05;10.83;;;1.50;;
78072;SDS011;67281;48.770;11.440;2023-07-28T08:53:40;1.03;;;1.03;;
78072;SDS011;67281;48.770;11.440;2023-07-28T08:56:10;3.33;;;1.97;;
78072;SDS011;67281;48.770;11.440;2023-07-28T08:58:37;1.27;;;1.20;;
78072;SDS011;67281;48.770;11.440;2023-07-28T09:01:04;1.10;;;1.10;;
78072;SDS011;67281;48.770;11.440;2023-07-28T09:03:31;2.03;;;1.93;;
78072;SDS011;67281;48.770;11.440;2023-07-28T09:06:03;2.10;;;1.93;;
78072;SDS011;67281;48.770;11.440;2023-07-28T09:08:30;2.30;;;1.80;;
78072;SDS011;67281;48.770;11.440;2023-07-28T09:11:10;1.87;;;1.77;;
78072;SDS011;67281;48.770;11.440;2023-07-28T09:16:40;1.50;;;1.40;;
78072;SDS011;67281;48.770;11.440;2023-07-28T09:19:08;2.70;;;1.43;;
78072;SDS011;67281;48.770;11.440;2023-07-28T09:21:36;1.63;;;1.53;;
78072;SDS011;67281;48.770;11.440;2023-07-28T09:24:05;1.63;;;1.53;;
78072;SDS011;67281;48.770;11.440;2023-07-28T09:26:41;1.07;;;1.03;;
78072;SDS011;67281;48.770;11.440;2023-07-28T09:31:47;1.60;;;1.20;;
78072;SDS011;67281;48.770;11.440;2023-07-28T09:34:27;2.13;;;1.97;;
78072;SDS011;67281;48.770;11.440;2023-07-28T09:36:55;1.23;;;1.23;;
78072;SDS011;67281;48.770;11.440;2023-07-28T09:39:25;1.43;;;1.37;;
78072;SDS011;67281;48.770;11.440;2023-07-28T09:42:19;1.50;;;1.40;;
78072;SDS011;67281;48.770;11.440;2023-07-28T09:44:47;1.87;;;1.73;;
78072;SDS011;67281;48.770;11.440;2023-07-28T09:47:14;1.07;;;1.00;;
78072;SDS011;67281;48.770;11.440;2023-07-28T09:52:47;1.00;;;0.97;;
78072;SDS011;67281;48.770;11.440;2023-07-28T09:55:32;3.23;;;1.20;;
78072;SDS011;67281;48.770;11.440;2023-07-28T09:58:03;1.27;;;1.10;;
78072;SDS011;67281;48.770;11.440;2023-07-28T10:00:39;1.10;;;1.10;;
78072;SDS011;67281;48.770;11.440;2023-07-28T10:03:07;1.07;;;1.03;;
78072;SDS011;67281;48.770;11.440;2023-07-28T10:05:36;1.23;;;1.13;;
78072;SDS011;67281;48.770;11.440;2023-07-28T10:08:08;0.90;;;0.90;;
78072;SDS011;67281;48.770;11.440;2023-07-28T10:10:36;1.43;;;1.33;;
78072;SDS011;67281;48.770;11.440;2023-07-28T10:13:30;2.03;;;1.83;;
78072;SDS011;67281;48.770;11.440;2023-07-28T10:16:15;1.20;;;1.20;;
78072;SDS011;67281;48.770;11.440;2023-07-28T10:18:55;2.87;;;1.80;;
78072;SDS011;67281;48.770;11.440;2023-07-28T10:21:27;1.17;;;1.17;;
78072;SDS011;67281;48.770;11.440;2023-07-28T10:23:56;1.33;;;1.23;;
78072;SDS011;67281;48.770;11.440;2023-07-28T10:26:30;1.30;;;1.23;;
78072;SDS011;67281;48.770;11.440;2023-07-28T10:29:08;2.33;;;2.13;;
78072;SDS011;67281;48.770;11.440;2023-07-28T10:31:52;3.43;;;2.50;;
78072;SDS011;67281;48.770;11.440;2023-07-28T10:34:21;2.50;;;1.47;;
78072;SDS011;67281;48.770;11.440;2023-07-28T10:36:58;2.00;;;1.73;;
78072;SDS011;67281;48.770;11.440;2023-07-28T10:39:26;2.07;;;1.87;;
78072;SDS011;67281;48.770;11.440;2023-07-28T10:42:07;1.70;;;1.60;;
78072;SDS011;67281;48.770;11.440;2023-07-28T10:44:37;1.53;;;1.43;;
78072;SDS011;67281;48.770;11.440;2023-07-28T10:49:51;1.87;;;1.67;;
78072;SDS011;67281;48.770;11.440;2023-07-28T10:52:18;2.10;;;2.00;;
78072;SDS011;67281;48.770;11.440;2023-07-28T10:54:45;1.63;;;1.37;;
78072;SDS011;67281;48.770;11.440;2023-07-28T10:57:13;1.10;;;1.10;;
78072;SDS011;67281;48.770;11.440;2023-07-28T10:59:40;1.87;;;1.77;;
78072;SDS011;67281;48.770;11.440;2023-07-28T11:02:08;1.20;;;1.20;;
78072;SDS011;67281;48.770;11.440;2023-07-28T11:04:47;1.00;;;1.00;;
78072;SDS011;67281;48.770;11.440;2023-07-28T11:07:42;1.47;;;1.37;;
78072;SDS011;67281;48.770;11.440;2023-07-28T11:10:10;1.80;;;1.70;;
78072;SDS011;67281;48.770;11.440;2023-07-28T11:12:42;1.77;;;1.40;;
78072;SDS011;67281;48.770;11.440;2023-07-28T11:15:19;2.33;;;2.17;;
78072;SDS011;67281;48.770;11.440;2023-07-28T11:17:47;1.80;;;1.67;;
78072;SDS011;67281;48.770;11.440;2023-07-28T11:20:20;1.03;;;0.93;;
78072;SDS011;67281;48.770;11.440;2023-07-28T11:25:35;1.43;;;1.10;;
78072;SDS011;67281;48.770;11.440;2023-07-28T11:28:02;1.00;;;1.00;;
78072;SDS011;67281;48.770;11.440;2023-07-28T11:30:32;2.03;;;1.70;;
78072;SDS011;67281;48.770;11.440;2023-07-28T11:33:04;0.77;;;0.77;;
78072;SDS011;67281;48.770;11.440;2023-07-28T11:35:38;0.80;;;0.80;;
78072;SDS011;67281;48.770;11.440;2023-07-28T11:38:08;1.00;;;1.00;;
78072;SDS011;67281;48.770;11.440;2023-07-28T11:40:36;1.20;;;1.20;;
78072;SDS011;67281;48.770;11.440;2023-07-28T11:43:04;0.90;;;0.90;;
78072;SDS011;67281;48.770;11.440;2023-07-28T11:45:31;0.67;;;0.67;;
78072;SDS011;67281;48.770;11.440;2023-07-28T11:47:59;1.93;;;0.93;;
78072;SDS011;67281;48.770;11.440;2023-07-28T11:50:38;1.23;;;1.13;;
78072;SDS011;67281;48.770;11.440;2023-07-28T11:53:09;0.77;;;0.77;;
78072;SDS011;67281;48.770;11.440;2023-07-28T11:55:37;0.90;;;0.90;;
78072;SDS011;67281;48.770;11.440;2023-07-28T11:58:05;1.23;;;1.23;;
78072;SDS011;67281;48.770;11.440;2023-07-28T12:00:36;0.80;;;0.80;;
78072;SDS011;67281;48.770;11.440;2023-07-28T12:03:10;0.67;;;0.67;;
78072;SDS011;67281;48.770;11.440;2023-07-28T12:05:40;1.13;;;1.13;;
78072;SDS011;67281;48.770;11.440;2023-07-28T12:08:38;1.50;;;1.27;;
78072;SDS011;67281;48.770;11.440;2023-07-28T12:11:05;0.80;;;0.80;;
78072;SDS011;67281;48.770;11.440;2023-07-28T12:13:47;1.23;;;1.13;;
78072;SDS011;67281;48.770;11.440;2023-07-28T12:19:40;1.20;;;1.10;;
78072;SDS011;67281;48.770;11.440;2023-07-28T12:22:28;0.93;;;0.93;;
78072;SDS011;67281;48.770;11.440;2023-07-28T12:25:00;0.50;;;0.50;;
78072;SDS011;67281;48.770;11.440;2023-07-28T12:27:27;1.10;;;1.10;;
78072;SDS011;67281;48.770;11.440;2023-07-28T12:30:02;1.47;;;1.37;;
78072;SDS011;67281;48.770;11.440;2023-07-28T12:32:30;0.87;;;0.87;;
78072;SDS011;67281;48.770;11.440;2023-07-28T12:35:06;1.97;;;0.63;;
78072;SDS011;67281;48.770;11.440;2023-07-28T12:37:36;0.70;;;0.70;;
78072;SDS011;67281;48.770;11.440;2023-07-28T12:40:07;0.67;;;0.67;;
78072;SDS011;67281;48.770;11.440;2023-07-28T12:42:47;0.73;;;0.73;;
78072;SDS011;67281;48.770;11.440;2023-07-28T12:45:17;0.50;;;0.50;;
78072;SDS011;67281;48.770;11.440;2023-07-28T12:47:47;0.40;;;0.40;;
78072;SDS011;67281;48.770;11.440;2023-07-28T12:50:24;0.60;;;0.60;;
78072;SDS011;67281;48.770;11.440;2023-07-28T12:52:52;0.50;;;0.50;;
78072;SDS011;67281;48.770;11.440;2023-07-28T12:55:22;0.40;;;0.40;;
78072;SDS011;67281;48.770;11.440;2023-07-28T12:57:49;0.57;;;0.57;;
78072;SDS011;67281;48.770;11.440;2023-07-28T13:00:16;0.40;;;0.40;;
78072;SDS011;67281;48.770;11.440;2023-07-28T13:02:46;0.40;;;0.40;;
78072;SDS011;67281;48.770;11.440;2023-07-28T13:05:14;0.60;;;0.60;;
78072;SDS011;67281;48.770;11.440;2023-07-28T13:07:50;1.27;;;1.17;;
78072;SDS011;67281;48.770;11.440;2023-07-28T13:10:23;1.40;;;0.77;;
78072;SDS011;67281;48.770;11.440;2023-07-28T13:12:53;0.77;;;0.77;;
78072;SDS011;67281;48.770;11.440;2023-07-28T13:15:22;0.70;;;0.70;;
78072;SDS011;67281;48.770;11.440;2023-07-28T13:17:50;0.50;;;0.50;;
78072;SDS011;67281;48.770;11.440;2023-07-28T13:20:19;0.77;;;0.77;;
78072;SDS011;67281;48.770;11.440;2023-07-28T13:22:46;0.47;;;0.47;;
78072;SDS011;67281;48.770;11.440;2023-07-28T13:25:22;0.60;;;0.60;;
78072;SDS011;67281;48.770;11.440;2023-07-28T13:27:49;0.43;;;0.43;;
78072;SDS011;67281;48.770;11.440;2023-07-28T13:30:25;0.40;;;0.40;;
78072;SDS011;67281;48.770;11.440;2023-07-28T13:36:14;0.40;;;0.40;;
78072;SDS011;67281;48.770;11.440;2023-07-28T13:39:00;0.50;;;0.50;;
78072;SDS011;67281;48.770;11.440;2023-07-28T13:41:30;0.60;;;0.60;;
78072;SDS011;67281;48.770;11.440;2023-07-28T13:44:10;0.60;;;0.60;;
78072;SDS011;67281;48.770;11.440;2023-07-28T13:47:00;0.63;;;0.63;;
78072;SDS011;67281;48.770;11.440;2023-07-28T13:49:28;0.50;;;0.50;;
78072;SDS011;67281;48.770;11.440;2023-07-28T13:51:55;0.60;;;0.60;;
78072;SDS011;67281;48.770;11.440;2023-07-28T13:54:25;0.70;;;0.70;;
78072;SDS011;67281;48.770;11.440;2023-07-28T13:57:13;1.03;;;0.77;;
78072;SDS011;67281;48.770;11.440;2023-07-28T13:59:43;0.90;;;0.90;;
78072;SDS011;67281;48.770;11.440;2023-07-28T14:02:23;0.50;;;0.50;;
78072;SDS011;67281;48.770;11.440;2023-07-28T14:04:50;0.90;;;0.90;;
78072;SDS011;67281;48.770;11.440;2023-07-28T14:07:18;0.90;;;0.90;;
78072;SDS011;67281;48.770;11.440;2023-07-28T14:09:54;0.70;;;0.70;;
78072;SDS011;67281;48.770;11.440;2023-07-28T14:12:22;0.80;;;0.80;;
78072;SDS011;67281;48.770;11.440;2023-07-28T14:14:51;0.43;;;0.43;;
78072;SDS011;67281;48.770;11.440;2023-07-28T14:17:22;0.30;;;0.30;;
78072;SDS011;67281;48.770;11.440;2023-07-28T14:20:17;0.63;;;0.63;;
78072;SDS011;67281;48.770;11.440;2023-07-28T14:22:44;0.70;;;0.70;;
78072;SDS011;67281;48.770;11.440;2023-07-28T14:25:52;0.53;;;0.53;;
78072;SDS011;67281;48.770;11.440;2023-07-28T14:28:31;0.60;;;0.60;;
78072;SDS011;67281;48.770;11.440;2023-07-28T14:31:10;0.50;;;0.50;;
78072;SDS011;67281;48.770;11.440;2023-07-28T14:33:47;0.40;;;0.40;;
78072;SDS011;67281;48.770;11.440;2023-07-28T14:36:23;0.67;;;0.67;;
78072;SDS011;67281;48.770;11.440;2023-07-28T14:39:10;0.30;;;0.30;;
78072;SDS011;67281;48.770;11.440;2023-07-28T14:41:51;0.97;;;0.97;;
78072;SDS011;67281;48.770;11.440;2023-07-28T14:44:20;0.87;;;0.70;;
78072;SDS011;67281;48.770;11.440;2023-07-28T14:46:48;0.50;;;0.50;;
78072;SDS011;67281;48.770;11.440;2023-07-28T14:49:17;0.50;;;0.50;;
78072;SDS011;67281;48.770;11.440;2023-07-28T14:52:17;0.60;;;0.60;;
78072;SDS011;67281;48.770;11.440;2023-07-28T14:54:52;1.00;;;1.00;;
78072;SDS011;67281;48.770;11.440;2023-07-28T14:57:19;1.90;;;0.87;;
78072;SDS011;67281;48.770;11.440;2023-07-28T15:00:01;2.00;;;1.07;;
78072;SDS011;67281;48.770;11.440;2023-07-28T15:02:40;0.90;;;0.90;;
78072;SDS011;67281;48.770;11.440;2023-07-28T15:05:08;0.60;;;0.60;;
78072;SDS011;67281;48.770;11.440;2023-07-28T15:07:44;1.03;;;1.03;;
78072;SDS011;67281;48.770;11.440;2023-07-28T15:10:12;0.83;;;0.83;;
78072;SDS011;67281;48.770;11.440;2023-07-28T15:12:42;0.60;;;0.60;;
78072;SDS011;67281;48.770;11.440;2023-07-28T15:15:11;0.60;;;0.60;;
78072;SDS011;67281;48.770;11.440;2023-07-28T15:17:39;3.73;;;0.47;;
78072;SDS011;67281;48.770;11.440;2023-07-28T15:20:06;0.60;;;0.60;;
78072;SDS011;67281;48.770;11.440;2023-07-28T15:22:33;0.63;;;0.63;;
78072;SDS011;67281;48.770;11.440;2023-07-28T15:25:01;0.67;;;0.67;;
78072;SDS011;67281;48.770;11.440;2023-07-28T15:27:29;0.93;;;0.93;;
78072;SDS011;67281;48.770;11.440;2023-07-28T15:30:12;0.80;;;0.80;;
78072;SDS011;67281;48.770;11.440;2023-07-28T15:32:40;0.70;;;0.70;;
78072;SDS011;67281;48.770;11.440;2023-07-28T15:35:07;0.60;;;0.60;;
78072;SDS011;67281;48.770;11.440;2023-07-28T15:37:40;0.50;;;0.50;;
78072;SDS011;67281;48.770;11.440;2023-07-28T15:40:07;0.90;;;0.90;;
78072;SDS011;67281;48.770;11.440;2023-07-28T15:42:35;0.63;;;0.63;;
78072;SDS011;67281;48.770;11.440;2023-07-28T15:45:02;0.87;;;0.87;;
78072;SDS011;67281;48.770;11.440;2023-07-28T15:47:29;0.73;;;0.73;;
78072;SDS011;67281;48.770;11.440;2023-07-28T15:50:05;0.83;;;0.83;;
78072;SDS011;67281;48.770;11.440;2023-07-28T15:52:33;2.37;;;2.17;;
78072;SDS011;67281;48.770;11.440;2023-07-28T15:55:00;1.20;;;1.10;;
78072;SDS011;67281;48.770;11.440;2023-07-28T15:57:39;1.50;;;1.40;;
78072;SDS011;67281;48.770;11.440;2023-07-28T16:00:06;0.50;;;0.50;;
78072;SDS011;67281;48.770;11.440;2023-07-28T16:02:36;1.27;;;0.93;;
78072;SDS011;67281;48.770;11.440;2023-07-28T16:05:04;0.87;;;0.83;;